createdAt,value
2023-05-02T00:00:04.739Z,14.56
2023-05-02T00:04:06.912Z,14.54
2023-05-02T00:08:08.741Z,14.46
2023-05-02T00:12:10.366Z,14.36
2023-05-02T00:16:11.986Z,14.13
2023-05-02T00:20:13.857Z,14.02
2023-05-02T00:24:17.352Z,13.96
2023-05-02T00:28:19.004Z,13.93
2023-05-02T00:32:21.049Z,13.96
2023-05-02T00:36:22.702Z,13.99
2023-05-02T00:40:24.291Z,13.96
2023-05-02T00:44:25.966Z,13.90
2023-05-02T00:48:27.966Z,13.79
2023-05-02T00:52:29.617Z,13.73
2023-05-02T00:56:31.334Z,13.75
2023-05-02T01:00:41.893Z,13.75
2023-05-02T01:04:58.834Z,13.76
2023-05-02T01:09:26.631Z,13.76
2023-05-02T01:13:33.447Z,13.71
2023-05-02T01:17:36.950Z,13.69
2023-05-02T01:21:39.645Z,13.69
2023-05-02T01:26:46.573Z,13.65
2023-05-02T01:30:50.845Z,13.61
2023-05-02T01:34:56.433Z,13.55
2023-05-02T01:39:00.219Z,13.53
2023-05-02T01:43:05.267Z,13.48
2023-05-02T01:47:09.723Z,13.44
2023-05-02T01:51:12.209Z,13.43
2023-05-02T01:55:15.946Z,13.41
2023-05-02T01:59:20.848Z,13.35
2023-05-02T02:03:23.663Z,13.29
2023-05-02T02:07:28.325Z,13.28
2023-05-02T02:11:36.528Z,13.22
2023-05-02T02:15:39.847Z,13.19
2023-05-02T02:19:42.894Z,13.14
2023-05-02T02:23:48.689Z,13.12
2023-05-02T02:27:50.760Z,13.10
2023-05-02T02:31:52.385Z,13.06
2023-05-02T02:36:04.074Z,13.03
2023-05-02T02:40:27.005Z,13.01
2023-05-02T02:44:44.138Z,12.96
2023-05-02T02:48:55.617Z,12.91
2023-05-02T02:53:02.749Z,12.88
2023-05-02T02:57:24.252Z,12.85
2023-05-02T03:01:27.933Z,12.79
2023-05-02T03:05:30.805Z,12.74
2023-05-02T03:09:46.740Z,12.69
2023-05-02T03:13:54.112Z,12.66
2023-05-02T03:17:57.841Z,12.62
2023-05-02T03:21:59.640Z,12.58
2023-05-02T03:26:02.814Z,12.52
2023-05-02T03:30:04.989Z,12.49
2023-05-02T03:34:07.561Z,12.48
2023-05-02T03:38:10.790Z,12.43
2023-05-02T03:42:12.788Z,12.33
2023-05-02T03:46:14.529Z,12.30
2023-05-02T03:50:19.550Z,12.26
2023-05-02T03:54:24.030Z,12.29
2023-05-02T03:58:27.155Z,12.26
2023-05-02T04:02:30.073Z,12.25
2023-05-02T04:06:32.836Z,12.25
2023-05-02T04:10:38.705Z,12.22
2023-05-02T04:14:43.572Z,12.25
2023-05-02T04:18:45.700Z,12.25
2023-05-02T04:22:50.072Z,12.23
2023-05-02T04:26:52.164Z,12.23
2023-05-02T04:30:54.497Z,12.15
2023-05-02T04:34:58.505Z,12.08
2023-05-02T04:39:01.075Z,12.11
2023-05-02T04:43:07.517Z,12.13
2023-05-02T04:47:14.898Z,12.18
2023-05-02T04:51:17.165Z,12.30
2023-05-02T04:55:21.875Z,12.38
2023-05-02T04:59:23.625Z,12.51
2023-05-02T05:03:25.921Z,12.55
2023-05-02T05:07:27.817Z,12.61
2023-05-02T05:11:30.204Z,12.66
2023-05-02T05:15:32.686Z,12.71
2023-05-02T05:19:36.430Z,12.77
2023-05-02T05:23:39.082Z,12.92
2023-05-02T05:27:42.890Z,12.98
2023-05-02T05:31:45.681Z,13.01
2023-05-02T05:35:50.402Z,13.04
2023-05-02T05:39:52.145Z,13.03
2023-05-02T05:43:53.865Z,13.04
2023-05-02T05:47:55.974Z,13.16
2023-05-02T05:52:00.953Z,13.28
2023-05-02T05:56:13.180Z,13.50
2023-05-02T06:00:20.961Z,13.63
2023-05-02T06:04:26.081Z,13.63
2023-05-02T06:08:28.527Z,13.62
2023-05-02T06:12:31.200Z,13.69
2023-05-02T06:16:32.879Z,13.73
2023-05-02T06:20:36.775Z,13.80
2023-05-02T06:24:38.352Z,13.75
2023-05-02T06:28:39.928Z,13.71
2023-05-02T06:32:44.109Z,13.76
2023-05-02T06:36:45.827Z,13.91
2023-05-02T06:40:47.806Z,13.93
2023-05-02T06:44:51.390Z,13.99
2023-05-02T06:48:52.943Z,13.99
2023-05-02T06:52:54.533Z,13.99
2023-05-02T06:56:56.193Z,14.08
2023-05-02T07:00:57.794Z,14.17
2023-05-02T07:04:59.425Z,14.31
2023-05-02T07:09:01.177Z,14.53
2023-05-02T07:13:02.714Z,14.67
2023-05-02T07:17:04.332Z,14.83
2023-05-02T07:21:05.992Z,14.87
2023-05-02T07:25:07.809Z,14.83
2023-05-02T07:29:09.728Z,14.83
2023-05-02T07:33:11.396Z,14.86
2023-05-02T07:37:13.106Z,14.93
2023-05-02T07:41:14.866Z,15.07
2023-05-02T07:45:16.875Z,15.07
2023-05-02T07:49:19.267Z,15.27
2023-05-02T07:53:20.947Z,15.51
2023-05-02T07:57:23.559Z,15.71
2023-05-02T08:01:25.117Z,15.88
2023-05-02T08:05:26.977Z,16.03
2023-05-02T08:09:29.333Z,16.11
2023-05-02T08:13:31.100Z,16.22
2023-05-02T08:17:33.209Z,16.48
2023-05-02T08:21:35.042Z,16.66
2023-05-02T08:25:36.842Z,16.60
2023-05-02T08:29:38.454Z,16.62
2023-05-02T08:33:40.206Z,16.57
2023-05-02T08:37:41.949Z,16.48
2023-05-02T08:41:44.803Z,16.34
2023-05-02T08:45:46.420Z,16.32
2023-05-02T08:49:49.906Z,16.29
2023-05-02T08:53:54.390Z,16.37
2023-05-02T08:57:58.290Z,16.41
2023-05-02T09:02:10.380Z,16.48
2023-05-02T09:06:20.764Z,16.34
2023-05-02T09:10:25.006Z,16.37
2023-05-02T09:14:26.795Z,16.62
2023-05-02T09:18:30.404Z,16.85
2023-05-02T09:22:32.040Z,16.84
2023-05-02T09:26:33.914Z,16.98
2023-05-02T09:30:35.732Z,17.00
2023-05-02T09:34:39.213Z,16.88
2023-05-02T09:38:42.731Z,17.05
2023-05-02T09:42:44.300Z,17.20
2023-05-02T09:46:51.105Z,17.33
2023-05-02T09:50:52.767Z,17.25
2023-05-02T09:54:56.401Z,17.07
2023-05-02T09:59:27.480Z,16.91
2023-05-02T10:03:29.714Z,16.81
2023-05-02T10:07:33.441Z,16.77
2023-05-02T10:11:35.114Z,16.87
2023-05-02T10:15:43.281Z,16.77
2023-05-02T10:19:53.865Z,16.63
2023-05-02T10:23:56.413Z,16.37
2023-05-02T10:28:00.870Z,16.23
2023-05-02T10:32:04.624Z,16.16
2023-05-02T10:36:09.528Z,16.23
2023-05-02T10:40:12.609Z,16.50
2023-05-02T10:44:14.651Z,16.67
2023-05-02T10:48:17.448Z,16.73
2023-05-02T10:52:38.800Z,16.90
2023-05-02T10:57:03.543Z,17.24
2023-05-02T11:01:30.892Z,17.39
2023-05-02T11:05:37.050Z,17.65
2023-05-02T11:09:38.643Z,17.73
2023-05-02T11:13:50.539Z,17.92
2023-05-02T11:18:24.376Z,18.31
2023-05-02T11:22:27.970Z,18.23
2023-05-02T11:26:32.736Z,18.44
2023-05-02T11:30:43.493Z,18.38
2023-05-02T11:34:45.505Z,18.02
2023-05-02T11:38:47.185Z,18.04
2023-05-02T11:42:48.764Z,18.49
2023-05-02T11:46:50.536Z,18.60
2023-05-02T11:50:54.624Z,18.84
2023-05-02T11:54:56.910Z,19.10
2023-05-02T11:59:00.016Z,19.24
2023-05-02T12:03:01.753Z,19.47
2023-05-02T12:07:03.630Z,19.68
2023-05-02T12:11:06.453Z,19.47
2023-05-02T12:15:10.052Z,18.93
2023-05-02T12:19:12.874Z,19.42
2023-05-02T12:23:14.780Z,19.64
2023-05-02T12:27:17.192Z,19.57
2023-05-02T12:31:19.581Z,19.72
2023-05-02T12:35:25.910Z,20.01
2023-05-02T12:39:38.804Z,20.53
2023-05-02T12:43:46.536Z,21.22
2023-05-02T12:47:48.139Z,21.46
2023-05-02T12:51:56.234Z,21.24
2023-05-02T12:56:04.683Z,21.24
2023-05-02T13:00:07.160Z,21.40
2023-05-02T13:04:08.936Z,21.34
2023-05-02T13:08:10.554Z,21.21
2023-05-02T13:12:12.505Z,21.03
2023-05-02T13:16:14.251Z,21.33
2023-05-02T13:20:16.300Z,21.40
2023-05-02T13:24:17.903Z,21.12
2023-05-02T13:28:19.531Z,21.49
2023-05-02T13:32:21.881Z,21.81
2023-05-02T13:36:24.502Z,21.86
2023-05-02T13:40:26.098Z,21.74
2023-05-02T13:44:27.619Z,21.70
2023-05-02T13:48:30.001Z,21.73
2023-05-02T13:52:31.593Z,21.77
2023-05-02T13:56:33.298Z,21.66
2023-05-02T14:00:34.896Z,22.02
2023-05-02T14:04:36.504Z,22.29
2023-05-02T14:08:38.177Z,22.17
2023-05-02T14:12:39.922Z,22.38
2023-05-02T14:16:41.509Z,22.91
2023-05-02T14:20:43.346Z,23.07
2023-05-02T14:24:45.083Z,23.14
2023-05-02T14:28:47.189Z,22.78
2023-05-02T14:32:48.757Z,22.93
2023-05-02T14:36:50.666Z,23.29
2023-05-02T14:40:52.183Z,23.62
2023-05-02T14:44:53.773Z,23.71
2023-05-02T14:48:55.295Z,22.72
2023-05-02T14:52:57.025Z,22.08
2023-05-02T14:56:59.759Z,21.68
2023-05-02T15:01:01.637Z,21.74
2023-05-02T15:05:05.577Z,21.48
2023-05-02T15:09:07.355Z,21.12
2023-05-02T15:13:09.089Z,21.28
2023-05-02T15:17:10.720Z,21.53
2023-05-02T15:21:12.568Z,22.02
2023-05-02T15:25:14.412Z,21.99
2023-05-02T15:29:16.193Z,21.93
2023-05-02T15:33:17.839Z,21.96
2023-05-02T15:37:19.394Z,21.89
2023-05-02T15:41:21.012Z,21.96
2023-05-02T15:45:22.682Z,21.99
2023-05-02T15:49:24.941Z,21.96
2023-05-02T15:53:26.456Z,21.83
2023-05-02T15:57:28.205Z,21.89
2023-05-02T16:01:29.798Z,21.98
2023-05-02T16:05:31.893Z,22.04
2023-05-02T16:09:33.543Z,21.93
2023-05-02T16:13:35.241Z,21.96
2023-05-02T16:17:37.001Z,21.96
2023-05-02T16:21:42.313Z,21.91
2023-05-02T16:25:43.921Z,21.89
2023-05-02T16:29:45.521Z,21.98
2023-05-02T16:33:50.832Z,21.61
2023-05-02T16:37:52.331Z,21.49
2023-05-02T16:41:53.877Z,21.52
2023-05-02T16:46:00.405Z,21.46
2023-05-02T16:50:02.585Z,21.34
2023-05-02T16:54:04.480Z,21.11
2023-05-02T16:58:06.408Z,21.03
2023-05-02T17:02:08.204Z,20.83
2023-05-02T17:06:09.854Z,20.75
2023-05-02T17:10:12.344Z,20.61
2023-05-02T17:14:14.230Z,20.58
2023-05-02T17:18:16.205Z,20.41
2023-05-02T17:22:18.917Z,20.33
2023-05-02T17:26:21.120Z,20.10
2023-05-02T17:30:23.716Z,19.79
2023-05-02T17:34:28.406Z,19.52
2023-05-02T17:38:30.024Z,19.28
2023-05-02T17:42:31.759Z,19.10
2023-05-02T17:46:33.560Z,18.76
2023-05-02T17:50:38.964Z,18.66
2023-05-02T17:54:40.538Z,18.49
2023-05-02T17:58:42.165Z,18.35
2023-05-02T18:02:44.137Z,18.25
2023-05-02T18:06:46.104Z,18.05
2023-05-02T18:10:47.935Z,17.94
2023-05-02T18:14:49.469Z,17.87
2023-05-02T18:18:51.041Z,17.79
2023-05-02T18:22:52.693Z,17.62
2023-05-02T18:26:54.432Z,17.42
2023-05-02T18:30:56.121Z,17.27
2023-05-02T18:34:57.764Z,17.21
2023-05-02T18:39:00.330Z,16.98
2023-05-02T18:43:01.900Z,16.84
2023-05-02T18:47:03.550Z,16.75
2023-05-02T18:51:05.757Z,16.66
2023-05-02T18:55:09.422Z,16.59
2023-05-02T18:59:11.842Z,16.54
2023-05-02T19:03:13.545Z,16.44
2023-05-02T19:07:15.412Z,16.32
2023-05-02T19:11:17.192Z,16.23
2023-05-02T19:15:18.897Z,16.14
2023-05-02T19:19:20.457Z,16.08
2023-05-02T19:23:22.168Z,16.01
2023-05-02T19:27:23.823Z,15.93
2023-05-02T19:31:25.586Z,15.89
2023-05-02T19:35:27.714Z,15.86
2023-05-02T19:39:29.437Z,15.80
2023-05-02T19:43:31.219Z,15.74
2023-05-02T19:47:32.884Z,15.64
2023-05-02T19:51:35.236Z,15.52
2023-05-02T19:55:36.806Z,15.44
2023-05-02T19:59:38.414Z,15.37
2023-05-02T20:03:40.090Z,15.34
2023-05-02T20:07:41.993Z,15.31
2023-05-02T20:11:43.578Z,15.12
2023-05-02T20:15:45.068Z,15.01
2023-05-02T20:19:46.608Z,14.93
2023-05-02T20:23:48.146Z,14.90
2023-05-02T20:27:53.131Z,14.80
2023-05-02T20:31:56.527Z,14.74
2023-05-02T20:35:58.301Z,14.72
2023-05-02T20:40:00.225Z,14.66
2023-05-02T20:44:03.825Z,14.60
2023-05-02T20:48:05.775Z,14.57
2023-05-02T20:52:07.462Z,14.52
2023-05-02T20:56:09.052Z,14.54
2023-05-02T21:00:11.388Z,14.41
2023-05-02T21:04:12.975Z,14.36
2023-05-02T21:08:14.564Z,14.34
2023-05-02T21:12:16.367Z,14.29
2023-05-02T21:16:19.640Z,14.24
2023-05-02T21:20:21.442Z,14.12
2023-05-02T21:24:22.988Z,14.05
2023-05-02T21:28:24.555Z,13.94
2023-05-02T21:32:26.707Z,13.87
2023-05-02T21:36:28.312Z,13.87
2023-05-02T21:40:31.795Z,13.87
2023-05-02T21:44:33.434Z,13.87
2023-05-02T21:48:35.053Z,13.79
2023-05-02T21:52:36.906Z,13.76
2023-05-02T21:56:38.602Z,13.75
2023-05-02T22:00:41.252Z,13.75
2023-05-02T22:04:48.301Z,13.71
2023-05-02T22:08:49.923Z,13.61
2023-05-02T22:12:51.462Z,13.50
2023-05-02T22:16:57.028Z,13.44
2023-05-02T22:20:58.767Z,13.35
2023-05-02T22:25:02.765Z,13.29
2023-05-02T22:29:04.885Z,13.24
2023-05-02T22:33:07.547Z,13.19
2023-05-02T22:37:09.375Z,13.21
2023-05-02T22:41:10.952Z,13.28
2023-05-02T22:45:13.528Z,13.25
2023-05-02T22:49:15.801Z,13.25
2023-05-02T22:53:17.397Z,13.17
2023-05-02T22:57:19.320Z,13.14
2023-05-02T23:01:21.211Z,13.03
2023-05-02T23:05:22.882Z,12.80
2023-05-02T23:09:24.431Z,12.66
2023-05-02T23:13:29.038Z,12.63
2023-05-02T23:17:30.689Z,12.61
2023-05-02T23:21:32.341Z,12.71
2023-05-02T23:25:35.777Z,12.69
2023-05-02T23:29:37.332Z,12.66
2023-05-02T23:33:39.048Z,12.58
2023-05-02T23:37:40.980Z,12.58
2023-05-02T23:41:42.576Z,12.46
2023-05-02T23:45:45.638Z,12.37
2023-05-02T23:49:47.197Z,12.30
2023-05-02T23:53:48.834Z,12.16
2023-05-02T23:57:50.465Z,12.05
